Fazenda Santo Andre Airport


Codes: SNRA/PIV
Name: Fazenda Santo Andre Airport
City: Pratinha
Country: Brazil
Elevation: 4134 ft.

Photos at Fazenda Santo Andre Airport


   Photos courtesy of SpottingLog. You can add your own sightings and photos by signing up for a free trial today.



No photos found.

Weather at Fazenda Santo Andre Airport


Time (UTC)DescriptionTempratureWindCloud coverageVisibilityPressureHumidity
26-Jun-2024 00:00Clear Sky18°C4 mph, E1%10000m1018hPa55%
26-Jun-2024 03:00Clear Sky17°C2 mph, NE0%10000m1018hPa58%
26-Jun-2024 06:00Clear Sky15°C4 mph, SE0%10000m1019hPa66%
26-Jun-2024 09:00Clear Sky13°C2 mph, SE0%10000m1019hPa71%
26-Jun-2024 12:00Clear Sky21°C4 mph, NE0%10000m1020hPa50%
26-Jun-2024 15:00Clear Sky26°C7 mph, N0%10000m1017hPa33%
26-Jun-2024 18:00Clear Sky27°C7 mph, NW0%10000m1014hPa29%
26-Jun-2024 21:00Clear Sky20°C4 mph, NW1%10000m1015hPa45%
27-Jun-2024 00:00Few Clouds18°C2 mph, NW20%10000m1017hPa49%
27-Jun-2024 03:00Overcast Clouds16°C2 mph, NW100%10000m1017hPa55%
27-Jun-2024 06:00Overcast Clouds15°C2 mph, W100%10000m1016hPa59%
27-Jun-2024 09:00Scattered Clouds14°C4 mph, W47%10000m1016hPa63%
27-Jun-2024 12:00Broken Clouds21°C4 mph, NW58%10000m1017hPa43%
27-Jun-2024 15:00Scattered Clouds27°C7 mph, NW43%10000m1014hPa28%
27-Jun-2024 18:00Broken Clouds27°C7 mph, NW54%10000m1011hPa26%
27-Jun-2024 21:00Clear Sky20°C2 mph, NW8%10000m1013hPa40%
28-Jun-2024 00:00Few Clouds18°C2 mph, SW16%10000m1015hPa45%
28-Jun-2024 03:00Scattered Clouds16°C2 mph, S32%10000m1015hPa54%
28-Jun-2024 06:00Few Clouds15°C2 mph, S19%10000m1014hPa58%
28-Jun-2024 09:00Clear Sky14°C0 mph, NE0%10000m1015hPa60%
28-Jun-2024 12:00Few Clouds22°C2 mph, E18%10000m1016hPa41%
28-Jun-2024 15:00Broken Clouds28°C7 mph, NW52%10000m1014hPa24%
28-Jun-2024 18:00Broken Clouds28°C9 mph, W76%10000m1012hPa23%
28-Jun-2024 21:00Overcast Clouds21°C2 mph, SW100%10000m1014hPa37%
29-Jun-2024 00:00Overcast Clouds18°C2 mph, NW100%10000m1015hPa42%
29-Jun-2024 03:00Overcast Clouds16°C2 mph, NW92%10000m1016hPa47%
29-Jun-2024 06:00Broken Clouds16°C2 mph, NW63%10000m1015hPa49%
29-Jun-2024 09:00Clear Sky15°C2 mph, NW7%10000m1016hPa50%
29-Jun-2024 12:00Clear Sky22°C4 mph, NW6%10000m1017hPa37%
29-Jun-2024 15:00Clear Sky29°C11 mph, NW2%10000m1015hPa22%
29-Jun-2024 18:00Few Clouds29°C9 mph, W17%10000m1012hPa20%
29-Jun-2024 21:00Broken Clouds21°C4 mph, SW55%10000m1014hPa33%
30-Jun-2024 00:00Scattered Clouds19°C2 mph, SW34%10000m1016hPa37%
30-Jun-2024 03:00Clear Sky16°C4 mph, NW8%10000m1016hPa42%
30-Jun-2024 06:00Clear Sky16°C2 mph, NW8%10000m1014hPa42%
30-Jun-2024 09:00Few Clouds16°C4 mph, NW19%10000m1016hPa43%
30-Jun-2024 12:00Few Clouds23°C2 mph, NW13%10000m1016hPa32%
30-Jun-2024 15:00Clear Sky30°C4 mph, NW5%10000m1014hPa21%
30-Jun-2024 18:00Clear Sky30°C9 mph, NW4%10000m1012hPa19%
30-Jun-2024 21:00Clear Sky21°C2 mph, S4%10000m1013hPa35%